Clarksburg, Tennessee
Current Conditions -  °F | °C
As of 8:55 PM on Wednesday 26 Nov 2014 (Local Time) from KPVE Reporting Station
Overcast Overcast  
Wind Chill: 32°   Ceiling: 7000
Heat Index: 39°   Visibility: 10mi
Dew Point: 32°   Wind: 10mph
Humidity: 75%   Direction: 280°W
Pressure: 30.1"   Gusts: NA
Location:  35.87°N, 88.39°W
Report Text: KPVE 270255Z AUTO 28009KT 10SM FEW042 BKN070 OVC080 04/00 A3010 RMK
Loading
Personal Weather Stations






























Interactive Weather Map New forecast layout! Learn more

10-Day Weather Forecast

Advertisements
Track Severe Weather on mobile